sensor_id;sensor_type;location;lat;lon;timestamp;P1;durP1;ratioP1;P2;durP2;ratioP2
23015;SDS011;11674;52.428;13.584;2023-07-16T00:01:31;6.80;;;3.65;;
23015;SDS011;11674;52.428;13.584;2023-07-16T00:06:38;5.78;;;3.45;;
23015;SDS011;11674;52.428;13.584;2023-07-16T00:11:45;6.80;;;4.75;;
23015;SDS011;11674;52.428;13.584;2023-07-16T00:16:52;3.65;;;2.92;;
23015;SDS011;11674;52.428;13.584;2023-07-16T00:21:59;6.15;;;3.10;;
23015;SDS011;11674;52.428;13.584;2023-07-16T00:27:06;4.25;;;2.55;;
23015;SDS011;11674;52.428;13.584;2023-07-16T00:32:13;6.47;;;2.55;;
23015;SDS011;11674;52.428;13.584;2023-07-16T00:37:20;4.45;;;2.80;;
23015;SDS011;11674;52.428;13.584;2023-07-16T00:42:27;5.28;;;2.30;;
23015;SDS011;11674;52.428;13.584;2023-07-16T00:47:34;3.85;;;2.80;;
23015;SDS011;11674;52.428;13.584;2023-07-16T00:52:41;3.30;;;2.78;;
23015;SDS011;11674;52.428;13.584;2023-07-16T00:57:48;4.82;;;3.13;;
23015;SDS011;11674;52.428;13.584;2023-07-16T01:02:55;9.73;;;6.65;;
23015;SDS011;11674;52.428;13.584;2023-07-16T01:08:03;7.95;;;4.05;;
23015;SDS011;11674;52.428;13.584;2023-07-16T01:13:13;6.30;;;3.85;;
23015;SDS011;11674;52.428;13.584;2023-07-16T01:18:21;15.18;;;8.52;;
23015;SDS011;11674;52.428;13.584;2023-07-16T01:29:33;9.35;;;4.80;;
23015;SDS011;11674;52.428;13.584;2023-07-16T01:34:48;6.68;;;4.20;;
23015;SDS011;11674;52.428;13.584;2023-07-16T01:39:58;4.13;;;3.13;;
23015;SDS011;11674;52.428;13.584;2023-07-16T01:45:05;4.47;;;2.75;;
23015;SDS011;11674;52.428;13.584;2023-07-16T01:50:12;7.40;;;3.15;;
23015;SDS011;11674;52.428;13.584;2023-07-16T01:55:19;6.80;;;3.15;;
23015;SDS011;11674;52.428;13.584;2023-07-16T02:00:26;5.15;;;3.45;;
23015;SDS011;11674;52.428;13.584;2023-07-16T02:05:33;5.85;;;3.53;;
23015;SDS011;11674;52.428;13.584;2023-07-16T02:10:40;6.18;;;3.22;;
23015;SDS011;11674;52.428;13.584;2023-07-16T02:15:47;6.13;;;2.92;;
23015;SDS011;11674;52.428;13.584;2023-07-16T02:20:54;4.50;;;2.25;;
23015;SDS011;11674;52.428;13.584;2023-07-16T02:26:01;5.35;;;2.60;;
23015;SDS011;11674;52.428;13.584;2023-07-16T02:31:08;3.35;;;2.13;;
23015;SDS011;11674;52.428;13.584;2023-07-16T02:36:15;6.55;;;1.90;;
23015;SDS011;11674;52.428;13.584;2023-07-16T02:41:23;2.00;;;1.60;;
23015;SDS011;11674;52.428;13.584;2023-07-16T02:46:31;1.92;;;1.70;;
23015;SDS011;11674;52.428;13.584;2023-07-16T02:51:38;5.45;;;2.22;;
23015;SDS011;11674;52.428;13.584;2023-07-16T02:56:46;2.00;;;1.73;;
23015;SDS011;11674;52.428;13.584;2023-07-16T03:01:53;2.25;;;1.80;;
23015;SDS011;11674;52.428;13.584;2023-07-16T03:07:00;4.38;;;1.83;;
23015;SDS011;11674;52.428;13.584;2023-07-16T03:12:07;1.95;;;1.67;;
23015;SDS011;11674;52.428;13.584;2023-07-16T03:17:15;1.70;;;1.60;;
23015;SDS011;11674;52.428;13.584;2023-07-16T03:22:21;4.40;;;1.88;;
23015;SDS011;11674;52.428;13.584;2023-07-16T03:27:28;3.10;;;2.00;;
23015;SDS011;11674;52.428;13.584;2023-07-16T03:32:36;2.70;;;1.83;;
23015;SDS011;11674;52.428;13.584;2023-07-16T03:37:43;2.67;;;1.80;;
23015;SDS011;11674;52.428;13.584;2023-07-16T03:42:51;3.22;;;2.10;;
23015;SDS011;11674;52.428;13.584;2023-07-16T03:47:58;5.85;;;2.35;;
23015;SDS011;11674;52.428;13.584;2023-07-16T03:53:05;6.00;;;2.33;;
23015;SDS011;11674;52.428;13.584;2023-07-16T03:58:12;3.78;;;2.50;;
23015;SDS011;11674;52.428;13.584;2023-07-16T04:03:19;5.45;;;3.03;;
23015;SDS011;11674;52.428;13.584;2023-07-16T04:08:26;5.78;;;2.65;;
23015;SDS011;11674;52.428;13.584;2023-07-16T04:13:33;7.55;;;3.30;;
23015;SDS011;11674;52.428;13.584;2023-07-16T04:18:40;3.90;;;2.95;;
23015;SDS011;11674;52.428;13.584;2023-07-16T04:23:47;5.38;;;3.45;;
23015;SDS011;11674;52.428;13.584;2023-07-16T04:28:54;5.22;;;3.67;;
23015;SDS011;11674;52.428;13.584;2023-07-16T04:34:01;9.00;;;4.10;;
23015;SDS011;11674;52.428;13.584;2023-07-16T04:39:08;5.35;;;3.60;;
23015;SDS011;11674;52.428;13.584;2023-07-16T04:44:15;7.28;;;4.53;;
23015;SDS011;11674;52.428;13.584;2023-07-16T04:49:22;6.15;;;4.68;;
23015;SDS011;11674;52.428;13.584;2023-07-16T04:54:34;8.32;;;4.65;;
23015;SDS011;11674;52.428;13.584;2023-07-16T04:59:41;8.10;;;4.18;;
23015;SDS011;11674;52.428;13.584;2023-07-16T05:04:48;10.05;;;4.63;;
23015;SDS011;11674;52.428;13.584;2023-07-16T05:10:02;7.03;;;4.07;;
23015;SDS011;11674;52.428;13.584;2023-07-16T05:15:09;7.22;;;4.50;;
23015;SDS011;11674;52.428;13.584;2023-07-16T05:20:16;5.75;;;4.45;;
23015;SDS011;11674;52.428;13.584;2023-07-16T05:25:23;9.70;;;4.18;;
23015;SDS011;11674;52.428;13.584;2023-07-16T05:30:31;7.57;;;4.35;;
23015;SDS011;11674;52.428;13.584;2023-07-16T05:35:39;7.93;;;3.85;;
23015;SDS011;11674;52.428;13.584;2023-07-16T05:40:45;6.28;;;4.00;;
23015;SDS011;11674;52.428;13.584;2023-07-16T05:45:52;8.65;;;3.60;;
23015;SDS011;11674;52.428;13.584;2023-07-16T05:50:59;13.80;;;3.33;;
23015;SDS011;11674;52.428;13.584;2023-07-16T05:56:06;8.07;;;3.22;;
23015;SDS011;11674;52.428;13.584;2023-07-16T06:01:13;5.90;;;2.90;;
23015;SDS011;11674;52.428;13.584;2023-07-16T06:06:20;4.85;;;2.88;;
23015;SDS011;11674;52.428;13.584;2023-07-16T06:11:27;6.32;;;2.50;;
23015;SDS011;11674;52.428;13.584;2023-07-16T06:16:34;2.55;;;2.20;;
23015;SDS011;11674;52.428;13.584;2023-07-16T06:21:41;5.38;;;2.60;;
23015;SDS011;11674;52.428;13.584;2023-07-16T06:26:48;5.15;;;2.35;;
23015;SDS011;11674;52.428;13.584;2023-07-16T06:31:56;5.28;;;2.50;;
23015;SDS011;11674;52.428;13.584;2023-07-16T06:37:03;5.47;;;2.53;;
23015;SDS011;11674;52.428;13.584;2023-07-16T06:42:10;5.28;;;2.72;;
23015;SDS011;11674;52.428;13.584;2023-07-16T06:47:17;3.70;;;2.60;;
23015;SDS011;11674;52.428;13.584;2023-07-16T06:52:24;4.55;;;2.50;;
23015;SDS011;11674;52.428;13.584;2023-07-16T06:57:31;5.05;;;2.58;;
23015;SDS011;11674;52.428;13.584;2023-07-16T07:02:38;3.95;;;2.10;;
23015;SDS011;11674;52.428;13.584;2023-07-16T07:07:45;4.72;;;2.45;;
23015;SDS011;11674;52.428;13.584;2023-07-16T07:12:52;3.58;;;2.25;;
23015;SDS011;11674;52.428;13.584;2023-07-16T07:17:59;5.68;;;2.15;;
23015;SDS011;11674;52.428;13.584;2023-07-16T07:23:06;4.22;;;2.22;;
23015;SDS011;11674;52.428;13.584;2023-07-16T07:28:13;3.50;;;2.20;;
23015;SDS011;11674;52.428;13.584;2023-07-16T07:33:20;3.05;;;2.30;;
23015;SDS011;11674;52.428;13.584;2023-07-16T07:38:27;4.68;;;2.08;;
23015;SDS011;11674;52.428;13.584;2023-07-16T07:43:34;2.97;;;2.30;;
23015;SDS011;11674;52.428;13.584;2023-07-16T07:48:41;4.43;;;2.10;;
23015;SDS011;11674;52.428;13.584;2023-07-16T07:53:48;5.70;;;2.40;;
23015;SDS011;11674;52.428;13.584;2023-07-16T07:58:55;5.18;;;2.05;;
23015;SDS011;11674;52.428;13.584;2023-07-16T08:04:02;7.88;;;2.63;;
23015;SDS011;11674;52.428;13.584;2023-07-16T08:09:09;2.88;;;1.95;;
23015;SDS011;11674;52.428;13.584;2023-07-16T08:14:16;4.20;;;2.30;;
23015;SDS011;11674;52.428;13.584;2023-07-16T08:19:23;3.00;;;1.80;;
23015;SDS011;11674;52.428;13.584;2023-07-16T08:24:30;2.60;;;1.92;;
23015;SDS011;11674;52.428;13.584;2023-07-16T08:29:37;3.38;;;1.98;;
23015;SDS011;11674;52.428;13.584;2023-07-16T08:34:44;3.50;;;2.25;;
23015;SDS011;11674;52.428;13.584;2023-07-16T08:39:52;3.92;;;1.75;;
23015;SDS011;11674;52.428;13.584;2023-07-16T08:44:58;3.45;;;1.67;;
23015;SDS011;11674;52.428;13.584;2023-07-16T08:50:07;2.88;;;1.60;;
23015;SDS011;11674;52.428;13.584;2023-07-16T08:55:14;2.08;;;1.27;;
23015;SDS011;11674;52.428;13.584;2023-07-16T09:00:23;3.13;;;1.33;;
23015;SDS011;11674;52.428;13.584;2023-07-16T09:05:31;3.38;;;1.75;;
23015;SDS011;11674;52.428;13.584;2023-07-16T09:10:41;3.08;;;1.65;;
23015;SDS011;11674;52.428;13.584;2023-07-16T09:15:52;2.92;;;1.58;;
23015;SDS011;11674;52.428;13.584;2023-07-16T09:20:59;2.97;;;1.50;;
23015;SDS011;11674;52.428;13.584;2023-07-16T09:26:06;4.10;;;1.67;;
23015;SDS011;11674;52.428;13.584;2023-07-16T09:31:13;4.15;;;1.50;;
23015;SDS011;11674;52.428;13.584;2023-07-16T09:36:24;3.47;;;1.60;;
23015;SDS011;11674;52.428;13.584;2023-07-16T09:41:31;2.13;;;1.63;;
23015;SDS011;11674;52.428;13.584;2023-07-16T09:46:38;1.95;;;1.45;;
23015;SDS011;11674;52.428;13.584;2023-07-16T09:51:45;1.88;;;1.45;;
23015;SDS011;11674;52.428;13.584;2023-07-16T09:56:55;4.05;;;1.50;;
23015;SDS011;11674;52.428;13.584;2023-07-16T10:02:05;3.30;;;1.50;;
23015;SDS011;11674;52.428;13.584;2023-07-16T10:07:20;4.75;;;1.67;;
23015;SDS011;11674;52.428;13.584;2023-07-16T10:12:27;1.35;;;1.25;;
23015;SDS011;11674;52.428;13.584;2023-07-16T10:17:34;5.97;;;1.58;;
23015;SDS011;11674;52.428;13.584;2023-07-16T10:22:42;5.43;;;1.98;;
23015;SDS011;11674;52.428;13.584;2023-07-16T10:27:52;8.20;;;2.00;;
23015;SDS011;11674;52.428;13.584;2023-07-16T10:33:02;4.35;;;2.22;;
23015;SDS011;11674;52.428;13.584;2023-07-16T10:38:10;4.97;;;1.80;;
23015;SDS011;11674;52.428;13.584;2023-07-16T10:43:17;4.40;;;1.70;;
23015;SDS011;11674;52.428;13.584;2023-07-16T10:48:25;3.45;;;1.73;;
23015;SDS011;11674;52.428;13.584;2023-07-16T10:53:31;5.45;;;2.25;;
23015;SDS011;11674;52.428;13.584;2023-07-16T10:58:39;3.08;;;1.80;;
23015;SDS011;11674;52.428;13.584;2023-07-16T11:03:45;5.78;;;2.47;;
23015;SDS011;11674;52.428;13.584;2023-07-16T11:08:53;3.70;;;2.28;;
23015;SDS011;11674;52.428;13.584;2023-07-16T11:14:00;5.68;;;3.33;;
23015;SDS011;11674;52.428;13.584;2023-07-16T11:19:10;6.57;;;1.88;;
23015;SDS011;11674;52.428;13.584;2023-07-16T11:24:17;4.88;;;2.17;;
23015;SDS011;11674;52.428;13.584;2023-07-16T11:29:24;2.67;;;1.52;;
23015;SDS011;11674;52.428;13.584;2023-07-16T11:34:30;2.42;;;1.60;;
23015;SDS011;11674;52.428;13.584;2023-07-16T11:39:38;2.47;;;1.63;;
23015;SDS011;11674;52.428;13.584;2023-07-16T11:44:48;4.15;;;1.70;;
23015;SDS011;11674;52.428;13.584;2023-07-16T11:49:56;4.50;;;1.80;;
23015;SDS011;11674;52.428;13.584;2023-07-16T11:55:04;6.53;;;2.70;;
23015;SDS011;11674;52.428;13.584;2023-07-16T12:00:11;6.88;;;4.05;;
23015;SDS011;11674;52.428;13.584;2023-07-16T12:05:18;10.65;;;1.90;;
23015;SDS011;11674;52.428;13.584;2023-07-16T12:10:29;3.72;;;2.17;;
23015;SDS011;11674;52.428;13.584;2023-07-16T12:15:36;4.15;;;1.70;;
23015;SDS011;11674;52.428;13.584;2023-07-16T12:20:43;4.53;;;1.50;;
23015;SDS011;11674;52.428;13.584;2023-07-16T12:25:50;5.72;;;1.70;;
23015;SDS011;11674;52.428;13.584;2023-07-16T12:30:57;3.70;;;1.58;;
23015;SDS011;11674;52.428;13.584;2023-07-16T12:36:04;4.95;;;1.38;;
23015;SDS011;11674;52.428;13.584;2023-07-16T12:41:11;6.38;;;1.42;;
23015;SDS011;11674;52.428;13.584;2023-07-16T12:46:18;3.78;;;1.40;;
23015;SDS011;11674;52.428;13.584;2023-07-16T12:51:25;5.63;;;1.50;;
23015;SDS011;11674;52.428;13.584;2023-07-16T12:56:32;5.32;;;2.55;;
23015;SDS011;11674;52.428;13.584;2023-07-16T13:01:39;2.88;;;1.80;;
23015;SDS011;11674;52.428;13.584;2023-07-16T13:06:46;7.50;;;1.70;;
23015;SDS011;11674;52.428;13.584;2023-07-16T13:11:53;7.60;;;1.70;;
23015;SDS011;11674;52.428;13.584;2023-07-16T13:17:00;3.58;;;1.67;;
23015;SDS011;11674;52.428;13.584;2023-07-16T13:22:07;5.28;;;2.78;;
23015;SDS011;11674;52.428;13.584;2023-07-16T13:27:20;2.60;;;1.55;;
23015;SDS011;11674;52.428;13.584;2023-07-16T13:32:29;5.70;;;1.55;;
23015;SDS011;11674;52.428;13.584;2023-07-16T13:37:36;2.10;;;1.52;;
23015;SDS011;11674;52.428;13.584;2023-07-16T13:42:43;2.28;;;1.38;;
23015;SDS011;11674;52.428;13.584;2023-07-16T13:47:50;2.53;;;1.50;;
23015;SDS011;11674;52.428;13.584;2023-07-16T13:52:57;2.92;;;1.38;;
23015;SDS011;11674;52.428;13.584;2023-07-16T13:58:04;3.78;;;1.20;;
23015;SDS011;11674;52.428;13.584;2023-07-16T14:03:11;4.53;;;2.08;;
23015;SDS011;11674;52.428;13.584;2023-07-16T14:08:18;3.42;;;1.83;;
23015;SDS011;11674;52.428;13.584;2023-07-16T14:13:25;6.22;;;2.15;;
23015;SDS011;11674;52.428;13.584;2023-07-16T14:18:32;6.82;;;1.85;;
23015;SDS011;11674;52.428;13.584;2023-07-16T14:23:39;3.20;;;1.52;;
23015;SDS011;11674;52.428;13.584;2023-07-16T14:28:46;4.32;;;1.60;;
23015;SDS011;11674;52.428;13.584;2023-07-16T14:33:53;1.83;;;1.08;;
23015;SDS011;11674;52.428;13.584;2023-07-16T14:39:00;5.35;;;1.30;;
23015;SDS011;11674;52.428;13.584;2023-07-16T14:44:07;2.65;;;1.25;;
23015;SDS011;11674;52.428;13.584;2023-07-16T14:49:14;3.08;;;1.27;;
23015;SDS011;11674;52.428;13.584;2023-07-16T14:54:21;2.08;;;1.17;;
23015;SDS011;11674;52.428;13.584;2023-07-16T14:59:28;2.47;;;1.30;;
23015;SDS011;11674;52.428;13.584;2023-07-16T15:04:35;2.90;;;1.50;;
23015;SDS011;11674;52.428;13.584;2023-07-16T15:09:42;4.57;;;1.30;;
23015;SDS011;11674;52.428;13.584;2023-07-16T15:14:49;9.90;;;1.42;;
23015;SDS011;11674;52.428;13.584;2023-07-16T15:19:56;5.20;;;1.55;;
23015;SDS011;11674;52.428;13.584;2023-07-16T15:25:03;3.53;;;1.33;;
23015;SDS011;11674;52.428;13.584;2023-07-16T15:30:11;2.58;;;1.30;;
23015;SDS011;11674;52.428;13.584;2023-07-16T15:35:18;5.97;;;1.30;;
23015;SDS011;11674;52.428;13.584;2023-07-16T15:40:25;6.45;;;1.50;;
23015;SDS011;11674;52.428;13.584;2023-07-16T15:45:32;3.60;;;1.20;;
23015;SDS011;11674;52.428;13.584;2023-07-16T15:50:46;1.65;;;1.00;;
23015;SDS011;11674;52.428;13.584;2023-07-16T15:55:53;3.00;;;1.48;;
23015;SDS011;11674;52.428;13.584;2023-07-16T16:01:00;2.33;;;1.35;;
23015;SDS011;11674;52.428;13.584;2023-07-16T16:06:07;4.97;;;1.80;;
23015;SDS011;11674;52.428;13.584;2023-07-16T16:11:14;4.80;;;1.30;;
23015;SDS011;11674;52.428;13.584;2023-07-16T16:16:22;3.03;;;1.55;;
23015;SDS011;11674;52.428;13.584;2023-07-16T16:21:29;6.93;;;4.70;;
23015;SDS011;11674;52.428;13.584;2023-07-16T16:26:36;5.40;;;1.70;;
23015;SDS011;11674;52.428;13.584;2023-07-16T16:31:43;3.38;;;1.70;;
23015;SDS011;11674;52.428;13.584;2023-07-16T16:36:50;6.93;;;1.30;;
23015;SDS011;11674;52.428;13.584;2023-07-16T16:41:57;2.55;;;1.50;;
23015;SDS011;11674;52.428;13.584;2023-07-16T16:47:04;3.35;;;1.80;;
23015;SDS011;11674;52.428;13.584;2023-07-16T16:52:11;2.45;;;1.80;;
23015;SDS011;11674;52.428;13.584;2023-07-16T16:57:18;5.78;;;1.50;;
23015;SDS011;11674;52.428;13.584;2023-07-16T17:02:26;4.85;;;1.88;;
23015;SDS011;11674;52.428;13.584;2023-07-16T17:07:33;4.43;;;1.60;;
23015;SDS011;11674;52.428;13.584;2023-07-16T17:12:40;5.40;;;1.63;;
23015;SDS011;11674;52.428;13.584;2023-07-16T17:17:47;6.95;;;1.50;;
23015;SDS011;11674;52.428;13.584;2023-07-16T17:22:54;4.82;;;1.90;;
23015;SDS011;11674;52.428;13.584;2023-07-16T17:28:01;2.35;;;1.48;;
23015;SDS011;11674;52.428;13.584;2023-07-16T17:33:08;2.20;;;1.30;;
23015;SDS011;11674;52.428;13.584;2023-07-16T17:38:15;4.30;;;2.60;;
23015;SDS011;11674;52.428;13.584;2023-07-16T17:43:22;3.97;;;1.90;;
23015;SDS011;11674;52.428;13.584;2023-07-16T17:48:29;3.67;;;1.52;;
23015;SDS011;11674;52.428;13.584;2023-07-16T17:53:36;2.25;;;1.60;;
23015;SDS011;11674;52.428;13.584;2023-07-16T17:58:43;4.75;;;2.05;;
23015;SDS011;11674;52.428;13.584;2023-07-16T18:03:50;4.95;;;1.83;;
23015;SDS011;11674;52.428;13.584;2023-07-16T18:08:57;6.15;;;1.73;;
23015;SDS011;11674;52.428;13.584;2023-07-16T18:14:04;4.15;;;2.15;;
23015;SDS011;11674;52.428;13.584;2023-07-16T18:19:11;6.50;;;1.88;;
23015;SDS011;11674;52.428;13.584;2023-07-16T18:24:18;6.18;;;4.32;;
23015;SDS011;11674;52.428;13.584;2023-07-16T18:29:25;3.17;;;1.77;;
23015;SDS011;11674;52.428;13.584;2023-07-16T18:34:32;3.28;;;1.85;;
23015;SDS011;11674;52.428;13.584;2023-07-16T18:39:39;4.70;;;1.73;;
23015;SDS011;11674;52.428;13.584;2023-07-16T18:44:46;4.97;;;2.28;;
23015;SDS011;11674;52.428;13.584;2023-07-16T18:49:53;2.58;;;1.83;;
23015;SDS011;11674;52.428;13.584;2023-07-16T18:55:00;3.30;;;1.67;;
23015;SDS011;11674;52.428;13.584;2023-07-16T19:00:07;3.75;;;2.28;;
23015;SDS011;11674;52.428;13.584;2023-07-16T19:05:14;4.68;;;2.17;;
23015;SDS011;11674;52.428;13.584;2023-07-16T19:10:21;5.70;;;2.85;;
23015;SDS011;11674;52.428;13.584;2023-07-16T19:15:28;5.30;;;2.95;;
23015;SDS011;11674;52.428;13.584;2023-07-16T19:20:35;6.15;;;3.05;;
23015;SDS011;11674;52.428;13.584;2023-07-16T19:25:42;3.28;;;1.90;;
23015;SDS011;11674;52.428;13.584;2023-07-16T19:30:49;4.72;;;2.55;;
23015;SDS011;11674;52.428;13.584;2023-07-16T19:35:57;5.40;;;2.10;;
23015;SDS011;11674;52.428;13.584;2023-07-16T19:41:05;4.90;;;2.30;;
23015;SDS011;11674;52.428;13.584;2023-07-16T19:46:12;5.10;;;2.47;;
23015;SDS011;11674;52.428;13.584;2023-07-16T19:51:19;6.55;;;2.15;;
23015;SDS011;11674;52.428;13.584;2023-07-16T19:56:26;4.78;;;1.85;;
23015;SDS011;11674;52.428;13.584;2023-07-16T20:01:33;7.47;;;2.10;;
23015;SDS011;11674;52.428;13.584;2023-07-16T20:06:40;3.92;;;2.10;;
23015;SDS011;11674;52.428;13.584;2023-07-16T20:11:47;4.45;;;2.20;;
23015;SDS011;11674;52.428;13.584;2023-07-16T20:17:04;4.55;;;2.50;;
23015;SDS011;11674;52.428;13.584;2023-07-16T20:22:18;4.03;;;2.70;;
23015;SDS011;11674;52.428;13.584;2023-07-16T20:27:25;2.90;;;2.25;;
23015;SDS011;11674;52.428;13.584;2023-07-16T20:32:32;7.40;;;3.17;;
23015;SDS011;11674;52.428;13.584;2023-07-16T20:37:39;6.80;;;2.30;;
23015;SDS011;11674;52.428;13.584;2023-07-16T20:42:46;5.63;;;2.60;;
23015;SDS011;11674;52.428;13.584;2023-07-16T20:47:54;5.38;;;2.63;;
23015;SDS011;11674;52.428;13.584;2023-07-16T20:53:02;5.32;;;2.50;;
23015;SDS011;11674;52.428;13.584;2023-07-16T20:58:09;5.72;;;2.50;;
23015;SDS011;11674;52.428;13.584;2023-07-16T21:03:16;2.80;;;2.20;;
23015;SDS011;11674;52.428;13.584;2023-07-16T21:08:23;5.93;;;3.10;;
23015;SDS011;11674;52.428;13.584;2023-07-16T21:13:30;5.10;;;2.70;;
23015;SDS011;11674;52.428;13.584;2023-07-16T21:18:37;4.03;;;2.60;;
23015;SDS011;11674;52.428;13.584;2023-07-16T21:23:44;7.00;;;3.20;;
23015;SDS011;11674;52.428;13.584;2023-07-16T21:28:51;4.22;;;2.30;;
23015;SDS011;11674;52.428;13.584;2023-07-16T21:33:58;7.05;;;3.10;;
23015;SDS011;11674;52.428;13.584;2023-07-16T21:39:05;5.38;;;2.80;;
23015;SDS011;11674;52.428;13.584;2023-07-16T21:44:12;11.75;;;6.55;;
23015;SDS011;11674;52.428;13.584;2023-07-16T21:49:19;4.22;;;2.78;;
23015;SDS011;11674;52.428;13.584;2023-07-16T21:54:26;6.65;;;3.40;;
23015;SDS011;11674;52.428;13.584;2023-07-16T21:59:33;6.40;;;2.65;;
23015;SDS011;11674;52.428;13.584;2023-07-16T22:04:40;8.68;;;2.95;;
23015;SDS011;11674;52.428;13.584;2023-07-16T22:09:47;5.70;;;2.90;;
23015;SDS011;11674;52.428;13.584;2023-07-16T22:14:54;3.72;;;2.75;;
23015;SDS011;11674;52.428;13.584;2023-07-16T22:20:01;6.50;;;3.28;;
23015;SDS011;11674;52.428;13.584;2023-07-16T22:25:08;7.85;;;3.00;;
23015;SDS011;11674;52.428;13.584;2023-07-16T22:30:15;6.30;;;3.10;;
23015;SDS011;11674;52.428;13.584;2023-07-16T22:35:22;6.65;;;3.40;;
23015;SDS011;11674;52.428;13.584;2023-07-16T22:40:29;6.80;;;3.00;;
23015;SDS011;11674;52.428;13.584;2023-07-16T22:45:36;5.38;;;2.60;;
23015;SDS011;11674;52.428;13.584;2023-07-16T22:50:44;5.88;;;2.97;;
23015;SDS011;11674;52.428;13.584;2023-07-16T22:55:51;10.32;;;3.63;;
23015;SDS011;11674;52.428;13.584;2023-07-16T23:00:58;8.77;;;3.45;;
23015;SDS011;11674;52.428;13.584;2023-07-16T23:06:05;7.15;;;3.58;;
23015;SDS011;11674;52.428;13.584;2023-07-16T23:11:12;10.13;;;3.92;;
23015;SDS011;11674;52.428;13.584;2023-07-16T23:16:19;6.03;;;3.13;;
23015;SDS011;11674;52.428;13.584;2023-07-16T23:21:26;8.55;;;3.38;;
23015;SDS011;11674;52.428;13.584;2023-07-16T23:26:33;8.25;;;3.22;;
23015;SDS011;11674;52.428;13.584;2023-07-16T23:31:40;7.10;;;3.38;;
23015;SDS011;11674;52.428;13.584;2023-07-16T23:36:47;6.30;;;2.63;;
23015;SDS011;11674;52.428;13.584;2023-07-16T23:41:54;4.78;;;3.05;;
23015;SDS011;11674;52.428;13.584;2023-07-16T23:47:01;3.60;;;2.80;;
23015;SDS011;11674;52.428;13.584;2023-07-16T23:52:08;6.82;;;2.90;;
23015;SDS011;11674;52.428;13.584;2023-07-16T23:57:15;8.35;;;4.22;;
